createdAt,value
2019-01-12T00:01:06.943Z,93.75
2019-01-12T00:03:37.623Z,93.68
2019-01-12T00:06:08.020Z,93.31
2019-01-12T00:08:38.279Z,93.16
2019-01-12T00:11:08.675Z,93.08
2019-01-12T00:13:38.502Z,92.74
2019-01-12T00:16:08.938Z,92.81
2019-01-12T00:18:39.808Z,92.81
2019-01-12T00:21:10.481Z,92.98
2019-01-12T00:23:40.658Z,92.97
2019-01-12T00:26:10.570Z,93.09
2019-01-12T00:28:40.951Z,93.30
2019-01-12T00:31:11.719Z,93.27
2019-01-12T00:33:42.030Z,93.11
2019-01-12T00:36:12.713Z,92.76
2019-01-12T00:38:42.584Z,92.60
2019-01-12T00:41:13.818Z,92.93
2019-01-12T00:43:44.869Z,93.20
2019-01-12T00:46:14.972Z,93.30
2019-01-12T00:48:45.203Z,93.21
2019-01-12T00:51:15.949Z,92.91
2019-01-12T00:53:46.198Z,92.74
2019-01-12T00:56:16.543Z,92.55
2019-01-12T00:58:46.754Z,92.75
2019-01-12T01:01:16.718Z,92.84
2019-01-12T01:03:47.069Z,93.09
2019-01-12T01:06:17.463Z,93.08
2019-01-12T01:08:47.821Z,92.94
2019-01-12T01:11:18.201Z,93.13
2019-01-12T01:13:49.039Z,92.89
2019-01-12T01:16:19.422Z,92.82
2019-01-12T01:18:50.347Z,92.95
2019-01-12T01:21:20.561Z,92.84
2019-01-12T01:23:50.801Z,92.91
2019-01-12T01:26:21.476Z,93.04
2019-01-12T01:28:51.819Z,93.08
2019-01-12T01:31:22.370Z,93.21
2019-01-12T01:33:52.730Z,93.46
2019-01-12T01:36:23.001Z,93.84
2019-01-12T01:38:53.251Z,94.19
2019-01-12T01:41:23.548Z,94.14
2019-01-12T01:43:53.907Z,93.69
2019-01-12T01:46:24.483Z,93.59
2019-01-12T01:48:55.179Z,93.58
2019-01-12T01:51:25.447Z,93.55
2019-01-12T01:53:55.676Z,93.52
2019-01-12T01:56:25.520Z,93.39
2019-01-12T01:58:55.862Z,93.19
2019-01-12T02:01:26.323Z,93.08
2019-01-12T02:03:57.132Z,92.80
2019-01-12T02:06:27.538Z,92.58
2019-01-12T02:08:57.957Z,92.56
2019-01-12T02:11:28.939Z,92.65
2019-01-12T02:13:59.078Z,92.63
2019-01-12T02:16:29.301Z,92.59
2019-01-12T02:18:59.633Z,92.87
2019-01-12T02:21:30.124Z,93.05
2019-01-12T02:24:00.787Z,93.34
2019-01-12T02:26:31.027Z,93.52
2019-01-12T02:29:01.330Z,93.48
2019-01-12T02:31:31.749Z,93.16
2019-01-12T02:34:02.462Z,93.02
2019-01-12T02:36:32.772Z,92.88
2019-01-12T02:39:04.174Z,93.37
2019-01-12T02:41:34.403Z,93.56
2019-01-12T02:44:05.168Z,93.76
2019-01-12T02:46:35.495Z,94.02
2019-01-12T02:49:05.321Z,94.19
2019-01-12T02:51:35.937Z,94.36
2019-01-12T02:54:06.211Z,94.33
2019-01-12T02:56:36.803Z,94.39
2019-01-12T02:59:07.213Z,94.29
2019-01-12T03:01:38.183Z,94.36
2019-01-12T03:04:08.671Z,94.42
2019-01-12T03:06:39.638Z,94.41
2019-01-12T03:09:10.361Z,94.22
2019-01-12T03:11:40.561Z,94.14
2019-01-12T03:14:10.841Z,93.89
2019-01-12T03:16:41.223Z,93.49
2019-01-12T03:19:11.412Z,93.55
2019-01-12T03:21:41.721Z,93.26
2019-01-12T03:24:12.265Z,93.39
2019-01-12T03:26:42.692Z,93.44
2019-01-12T03:29:13.138Z,93.33
2019-01-12T03:31:43.517Z,93.32
2019-01-12T03:34:14.193Z,93.34
2019-01-12T03:36:44.567Z,93.61
2019-01-12T03:39:15.013Z,93.76
2019-01-12T03:41:45.385Z,93.96
2019-01-12T03:44:15.778Z,94.25
2019-01-12T03:46:46.154Z,94.33
2019-01-12T03:49:16.385Z,94.18
2019-01-12T03:51:46.822Z,94.10
2019-01-12T03:54:17.249Z,94.00
2019-01-12T03:56:47.655Z,93.82
2019-01-12T03:59:18.572Z,93.69
2019-01-12T04:01:48.875Z,93.69
2019-01-12T04:04:19.421Z,93.71
2019-01-12T04:06:49.701Z,93.78
2019-01-12T04:09:20.576Z,93.90
2019-01-12T04:11:51.383Z,94.06
2019-01-12T04:14:21.646Z,94.05
2019-01-12T04:16:51.980Z,94.03
2019-01-12T04:19:22.538Z,93.99
2019-01-12T04:21:52.946Z,94.04
2019-01-12T04:24:23.199Z,94.02
2019-01-12T04:26:53.374Z,94.22
2019-01-12T04:29:23.687Z,94.07
2019-01-12T04:31:54.044Z,93.76
2019-01-12T04:34:24.646Z,93.58
2019-01-12T04:36:54.955Z,93.45
2019-01-12T04:39:25.571Z,93.69
2019-01-12T04:41:55.984Z,93.50
2019-01-12T04:44:26.323Z,93.64
2019-01-12T04:46:57.032Z,93.83
2019-01-12T04:49:27.270Z,94.19
2019-01-12T04:51:57.567Z,94.53
2019-01-12T04:54:28.291Z,94.72
2019-01-12T04:56:58.482Z,94.90
2019-01-12T04:59:29.095Z,95.03
2019-01-12T05:01:59.426Z,95.02
2019-01-12T05:04:29.871Z,94.99
2019-01-12T05:07:00.185Z,94.91
2019-01-12T05:09:30.421Z,94.70
2019-01-12T05:12:00.796Z,94.43
2019-01-12T05:14:31.027Z,94.14
2019-01-12T05:17:01.675Z,93.63
2019-01-12T05:19:31.930Z,93.69
2019-01-12T05:22:02.216Z,93.43
2019-01-12T05:24:32.944Z,93.42
2019-01-12T05:27:03.794Z,93.44
2019-01-12T05:29:34.061Z,93.30
2019-01-12T05:32:04.341Z,93.29
2019-01-12T05:34:35.365Z,93.19
2019-01-12T05:37:05.805Z,93.24
2019-01-12T05:39:36.456Z,93.30
2019-01-12T05:42:06.948Z,93.34
2019-01-12T05:44:37.100Z,93.63
2019-01-12T05:47:07.476Z,93.53
2019-01-12T05:49:37.814Z,93.49
2019-01-12T05:52:08.188Z,93.60
2019-01-12T05:54:38.470Z,93.51
2019-01-12T05:57:08.881Z,93.58
2019-01-12T05:59:39.276Z,93.54
2019-01-12T06:02:09.634Z,93.48
2019-01-12T06:04:40.428Z,93.72
2019-01-12T06:07:10.812Z,93.87
2019-01-12T06:09:41.137Z,93.99
2019-01-12T06:12:11.441Z,93.96
2019-01-12T06:14:41.776Z,93.98
2019-01-12T06:17:12.045Z,94.11
2019-01-12T06:19:42.270Z,94.13
2019-01-12T06:22:12.559Z,94.10
2019-01-12T06:24:44.085Z,94.24
2019-01-12T06:27:14.631Z,94.42
2019-01-12T06:29:44.874Z,94.65
2019-01-12T06:32:15.191Z,94.97
2019-01-12T06:34:45.477Z,95.05
2019-01-12T06:37:15.878Z,95.03
2019-01-12T06:39:46.430Z,94.96
2019-01-12T06:42:16.787Z,94.97
2019-01-12T06:44:47.123Z,95.06
2019-01-12T06:47:17.353Z,94.96
2019-01-12T06:49:47.802Z,95.08
2019-01-12T06:52:18.028Z,95.21
2019-01-12T06:54:48.346Z,95.32
2019-01-12T06:57:18.702Z,95.32
2019-01-12T06:59:48.905Z,95.33
2019-01-12T07:02:19.272Z,95.46
2019-01-12T07:04:49.606Z,95.58
2019-01-12T07:07:20.037Z,95.68
2019-01-12T07:09:50.538Z,95.78
2019-01-12T07:12:20.912Z,95.83
2019-01-12T07:14:51.186Z,95.86
2019-01-12T07:17:21.900Z,95.85
2019-01-12T07:19:52.117Z,95.86
2019-01-12T07:22:22.326Z,95.98
2019-01-12T07:24:52.604Z,95.95
2019-01-12T07:27:23.246Z,95.98
2019-01-12T07:29:53.614Z,96.03
2019-01-12T07:32:24.181Z,95.94
2019-01-12T07:34:54.385Z,95.91
2019-01-12T07:37:24.547Z,95.90
2019-01-12T07:39:54.756Z,95.85
2019-01-12T07:42:24.954Z,95.77
2019-01-12T07:44:55.065Z,95.74
2019-01-12T07:47:25.341Z,95.77
2019-01-12T07:49:55.545Z,95.75
2019-01-12T07:52:25.657Z,95.82
2019-01-12T07:54:56.287Z,95.88
2019-01-12T07:57:26.765Z,95.89
2019-01-12T07:59:56.967Z,95.90
2019-01-12T08:02:27.151Z,95.89
2019-01-12T08:04:57.328Z,95.84
2019-01-12T08:07:27.467Z,95.83
2019-01-12T08:09:57.558Z,95.76
2019-01-12T08:12:27.665Z,95.73
2019-01-12T08:14:58.231Z,95.50
2019-01-12T08:17:28.720Z,95.26
2019-01-12T08:19:58.850Z,95.07
2019-01-12T08:22:29.058Z,94.97
2019-01-12T08:24:59.486Z,94.79
2019-01-12T08:27:29.673Z,94.99
2019-01-12T08:29:59.938Z,95.00
2019-01-12T08:32:30.223Z,94.84
2019-01-12T08:35:06.742Z,94.63
2019-01-12T08:37:37.013Z,94.43
2019-01-12T08:40:09.846Z,94.25
2019-01-12T08:42:41.283Z,94.44
2019-01-12T08:45:12.465Z,94.60
2019-01-12T08:47:42.780Z,94.48
2019-01-12T08:50:17.738Z,94.49
2019-01-12T08:52:48.473Z,94.27
2019-01-12T08:55:19.032Z,94.24
2019-01-12T08:57:49.369Z,93.99
2019-01-12T09:00:26.115Z,93.73
2019-01-12T09:02:56.241Z,93.15
2019-01-12T09:05:26.486Z,92.65
2019-01-12T09:07:56.862Z,92.77
2019-01-12T09:10:27.119Z,92.54
2019-01-12T09:12:57.321Z,92.40
2019-01-12T09:15:27.685Z,92.40
2019-01-12T09:17:57.808Z,92.39
2019-01-12T09:20:28.267Z,92.27
2019-01-12T09:22:58.447Z,92.30
2019-01-12T09:25:28.704Z,92.35
2019-01-12T09:27:59.348Z,92.58
2019-01-12T09:30:29.641Z,92.77
2019-01-12T09:32:59.968Z,92.70
2019-01-12T09:35:30.160Z,92.64
2019-01-12T09:38:00.504Z,92.76
2019-01-12T09:40:30.821Z,92.45
2019-01-12T09:43:01.170Z,92.35
2019-01-12T09:45:31.603Z,92.29
2019-01-12T09:48:01.929Z,92.21
2019-01-12T09:50:32.196Z,91.90
2019-01-12T09:53:02.359Z,91.66
2019-01-12T09:55:32.614Z,91.58
2019-01-12T09:58:02.971Z,91.63
2019-01-12T10:00:33.230Z,91.82
2019-01-12T10:03:03.616Z,91.87
2019-01-12T10:05:33.924Z,91.38
2019-01-12T10:08:04.368Z,90.81
2019-01-12T10:10:34.926Z,91.03
2019-01-12T10:13:05.215Z,91.02
2019-01-12T10:15:35.474Z,91.07
2019-01-12T10:18:05.910Z,90.82
2019-01-12T10:20:36.037Z,90.72
2019-01-12T10:23:08.456Z,90.79
2019-01-12T10:25:38.695Z,90.99
2019-01-12T10:28:09.049Z,90.64
2019-01-12T10:30:39.221Z,90.54
2019-01-12T10:33:09.502Z,90.86
2019-01-12T10:35:39.747Z,90.65
2019-01-12T10:38:10.188Z,90.52
2019-01-12T10:40:40.531Z,90.52
2019-01-12T10:43:10.630Z,90.82
2019-01-12T10:45:40.894Z,90.67
2019-01-12T10:48:11.204Z,90.93
2019-01-12T10:50:41.420Z,91.04
2019-01-12T10:53:11.837Z,91.49
2019-01-12T10:55:42.108Z,91.61
2019-01-12T10:58:13.130Z,91.73
2019-01-12T11:00:43.456Z,91.72
2019-01-12T11:03:13.710Z,91.60
2019-01-12T11:05:44.061Z,91.51
2019-01-12T11:08:14.378Z,92.01
2019-01-12T11:10:44.650Z,92.57
2019-01-12T11:13:15.323Z,92.86
2019-01-12T11:15:45.755Z,92.51
2019-01-12T11:18:16.108Z,92.83
2019-01-12T11:20:46.364Z,92.47
2019-01-12T11:23:16.621Z,92.54
2019-01-12T11:25:46.889Z,92.04
2019-01-12T11:28:17.353Z,91.62
2019-01-12T11:30:47.880Z,91.65
2019-01-12T11:33:18.060Z,91.81
2019-01-12T11:35:48.359Z,91.63
2019-01-12T11:38:19.404Z,91.56
2019-01-12T11:40:49.705Z,91.54
2019-01-12T11:43:19.961Z,91.35
2019-01-12T11:45:50.770Z,91.21
2019-01-12T11:48:21.309Z,91.32
2019-01-12T11:50:51.789Z,91.80
2019-01-12T11:53:21.961Z,92.01
2019-01-12T11:55:52.166Z,92.04
2019-01-12T11:58:22.436Z,91.56
2019-01-12T12:00:52.780Z,91.27
2019-01-12T12:03:23.042Z,91.23
2019-01-12T12:05:53.561Z,91.28
2019-01-12T12:08:23.811Z,91.10
2019-01-12T12:10:54.525Z,90.86
2019-01-12T12:13:24.866Z,91.04
2019-01-12T12:15:55.331Z,90.93
2019-01-12T12:18:25.710Z,91.20
2019-01-12T12:20:56.597Z,91.30
2019-01-12T12:23:26.769Z,91.72
2019-01-12T12:25:57.137Z,91.82
2019-01-12T12:28:27.398Z,91.85
2019-01-12T12:30:57.660Z,91.40
2019-01-12T12:33:27.842Z,91.38
2019-01-12T12:35:58.116Z,91.45
2019-01-12T12:38:28.430Z,91.62
2019-01-12T12:40:58.699Z,91.69
2019-01-12T12:43:28.886Z,91.47
2019-01-12T12:45:59.203Z,91.18
2019-01-12T12:48:29.521Z,91.04
2019-01-12T12:50:59.961Z,90.60
2019-01-12T12:53:30.462Z,90.24
2019-01-12T12:56:00.759Z,90.14
2019-01-12T12:58:30.948Z,89.95
2019-01-12T13:01:01.695Z,89.83
2019-01-12T13:03:32.004Z,89.73
2019-01-12T13:06:02.273Z,89.67
2019-01-12T13:08:32.806Z,90.20
2019-01-12T13:11:03.033Z,89.67
2019-01-12T13:13:33.225Z,89.51
2019-01-12T13:16:03.505Z,89.83
2019-01-12T13:18:33.775Z,89.75
2019-01-12T13:21:04.129Z,89.81
2019-01-12T13:23:34.316Z,89.95
2019-01-12T13:26:07.027Z,90.12
2019-01-12T13:28:37.208Z,90.62
2019-01-12T13:31:07.654Z,90.94
2019-01-12T13:33:37.847Z,91.03
2019-01-12T13:36:10.955Z,91.12
2019-01-12T13:38:41.262Z,91.17
2019-01-12T13:41:11.710Z,90.99
2019-01-12T13:43:42.349Z,91.00
2019-01-12T13:46:12.686Z,90.63
2019-01-12T13:48:43.389Z,90.80
2019-01-12T13:51:13.979Z,90.55
2019-01-12T13:53:44.493Z,90.60
2019-01-12T13:56:15.058Z,90.87
2019-01-12T13:58:45.499Z,90.94
2019-01-12T14:01:15.948Z,91.19
2019-01-12T14:03:46.515Z,91.23
2019-01-12T14:06:16.922Z,91.32
2019-01-12T14:08:49.190Z,91.51
2019-01-12T14:11:19.627Z,91.70
2019-01-12T14:13:49.921Z,91.59
2019-01-12T14:16:20.281Z,91.72
2019-01-12T14:18:50.666Z,91.78
2019-01-12T14:21:21.482Z,92.00
2019-01-12T14:23:52.083Z,91.99
2019-01-12T14:26:22.358Z,92.01
2019-01-12T14:28:52.795Z,92.04
2019-01-12T14:31:23.576Z,91.93
2019-01-12T14:33:54.054Z,91.77
2019-01-12T14:36:24.513Z,91.82
2019-01-12T14:38:54.907Z,92.04
2019-01-12T14:41:25.390Z,92.17
2019-01-12T14:43:55.765Z,92.30
2019-01-12T14:46:26.164Z,92.31
2019-01-12T14:48:56.602Z,92.34
2019-01-12T14:51:26.973Z,92.05
2019-01-12T14:53:57.323Z,92.13
2019-01-12T14:56:28.768Z,92.20
2019-01-12T14:58:59.386Z,92.16
2019-01-12T15:01:29.786Z,91.96
2019-01-12T15:04:00.119Z,91.81
2019-01-12T15:06:30.480Z,91.78
2019-01-12T15:09:00.812Z,91.69
2019-01-12T15:11:31.071Z,91.86
2019-01-12T15:14:01.251Z,92.05
2019-01-12T15:16:31.426Z,92.12
2019-01-12T15:19:01.708Z,91.84
2019-01-12T15:21:32.286Z,91.93
2019-01-12T15:24:02.471Z,91.67
2019-01-12T15:26:32.877Z,91.57
2019-01-12T15:29:03.210Z,91.47
2019-01-12T15:31:33.478Z,91.24
2019-01-12T15:34:03.725Z,91.03
2019-01-12T15:36:34.145Z,90.96
2019-01-12T15:39:06.755Z,91.12
2019-01-12T15:41:36.863Z,90.58
2019-01-12T15:44:07.017Z,90.42
2019-01-12T15:46:37.256Z,90.50
2019-01-12T15:49:07.541Z,90.03
2019-01-12T15:51:37.888Z,90.03
2019-01-12T15:54:08.154Z,89.87
2019-01-12T15:56:38.445Z,90.00
2019-01-12T15:59:09.018Z,89.82
2019-01-12T16:01:39.173Z,89.82
2019-01-12T16:04:09.431Z,89.91
2019-01-12T16:06:39.610Z,90.07
2019-01-12T16:09:11.222Z,89.96
2019-01-12T16:11:41.562Z,89.60
2019-01-12T16:14:12.219Z,89.29
2019-01-12T16:16:42.997Z,88.75
2019-01-12T16:19:13.334Z,88.74
2019-01-12T16:21:43.547Z,88.88
2019-01-12T16:24:13.708Z,88.59
2019-01-12T16:26:44.216Z,88.52
2019-01-12T16:29:14.537Z,88.37
2019-01-12T16:31:44.718Z,88.17
2019-01-12T16:34:14.985Z,88.21
2019-01-12T16:36:45.169Z,88.39
2019-01-12T16:39:15.394Z,88.25
2019-01-12T16:41:45.839Z,88.29
2019-01-12T16:44:16.045Z,88.11
2019-01-12T16:46:46.155Z,88.24
2019-01-12T16:49:16.339Z,88.60
2019-01-12T16:51:46.455Z,88.67
2019-01-12T16:54:16.772Z,88.96
2019-01-12T16:56:46.962Z,89.55
2019-01-12T16:59:17.081Z,89.58
2019-01-12T17:01:47.409Z,89.63
2019-01-12T17:04:17.634Z,89.63
2019-01-12T17:06:47.946Z,89.78
2019-01-12T17:09:18.116Z,89.90
2019-01-12T17:11:48.372Z,89.80
2019-01-12T17:14:19.464Z,90.10
2019-01-12T17:16:49.683Z,89.96
2019-01-12T17:19:19.967Z,90.00
2019-01-12T17:21:50.372Z,90.27
2019-01-12T17:24:20.685Z,90.42
2019-01-12T17:26:50.817Z,90.37
2019-01-12T17:29:20.926Z,90.80
2019-01-12T17:31:51.266Z,90.96
2019-01-12T17:34:21.392Z,91.37
2019-01-12T17:36:58.529Z,91.85
2019-01-12T17:39:23.921Z,92.34
2019-01-12T17:41:54.135Z,92.80
2019-01-12T17:44:24.653Z,92.83
2019-01-12T17:46:54.928Z,93.33
2019-01-12T17:49:25.371Z,93.69
2019-01-12T17:51:55.581Z,94.14
2019-01-12T17:54:25.836Z,94.37
2019-01-12T17:56:56.109Z,94.56
2019-01-12T17:59:26.643Z,94.84
2019-01-12T18:01:56.971Z,95.02
2019-01-12T18:04:27.156Z,95.18
2019-01-12T18:06:57.357Z,95.27
2019-01-12T18:09:27.903Z,95.45
2019-01-12T18:11:58.509Z,95.64
2019-01-12T18:14:28.641Z,95.70
2019-01-12T18:16:58.944Z,95.75
2019-01-12T18:19:29.049Z,95.76
2019-01-12T18:21:59.545Z,95.86
2019-01-12T18:24:29.758Z,95.96
2019-01-12T18:27:00.686Z,96.08
2019-01-12T18:29:30.789Z,96.06
2019-01-12T18:32:01.059Z,96.05
2019-01-12T18:34:31.404Z,96.13
2019-01-12T18:37:01.674Z,96.19
2019-01-12T18:39:31.885Z,96.26
2019-01-12T18:42:02.083Z,96.34
2019-01-12T18:44:33.119Z,96.49
2019-01-12T18:47:03.591Z,96.56
2019-01-12T18:49:33.818Z,96.63
2019-01-12T18:52:04.254Z,96.71
2019-01-12T18:54:34.388Z,96.76
2019-01-12T18:57:04.628Z,96.77
2019-01-12T18:59:34.771Z,96.82
2019-01-12T19:02:05.061Z,96.86
2019-01-12T19:04:35.250Z,96.82
2019-01-12T19:07:05.634Z,96.88
2019-01-12T19:09:40.328Z,96.88
2019-01-12T19:12:10.676Z,96.87
2019-01-12T19:14:41.218Z,96.88
2019-01-12T19:17:11.506Z,96.89
2019-01-12T19:19:41.723Z,96.90
2019-01-12T19:22:12.066Z,96.90
2019-01-12T19:24:42.598Z,96.91
2019-01-12T19:27:13.298Z,96.89
2019-01-12T19:29:43.471Z,96.93
2019-01-12T19:32:13.707Z,96.98
2019-01-12T19:34:43.890Z,97.02
2019-01-12T19:37:14.101Z,96.92
2019-01-12T19:39:44.604Z,96.91
2019-01-12T19:42:15.656Z,96.88
2019-01-12T19:44:46.309Z,96.91
2019-01-12T19:47:16.414Z,96.92
2019-01-12T19:49:46.523Z,96.97
2019-01-12T19:52:16.726Z,96.99
2019-01-12T19:54:46.916Z,96.99
2019-01-12T19:57:17.231Z,97.04
2019-01-12T19:59:47.721Z,97.06
2019-01-12T20:02:18.051Z,97.08
2019-01-12T20:04:48.352Z,97.02
2019-01-12T20:07:18.525Z,97.02
2019-01-12T20:09:48.713Z,97.06
2019-01-12T20:12:19.297Z,97.09
2019-01-12T20:14:49.482Z,97.13
2019-01-12T20:17:19.709Z,97.10
2019-01-12T20:19:49.850Z,97.12
2019-01-12T20:22:20.371Z,97.15
2019-01-12T20:24:50.591Z,97.12
2019-01-12T20:27:20.904Z,97.15
2019-01-12T20:29:51.243Z,97.21
2019-01-12T20:32:46.202Z,97.23
2019-01-12T20:36:34.680Z,97.24
2019-01-12T20:40:00.709Z,97.24
2019-01-12T20:43:17.651Z,97.25
2019-01-12T20:46:59.719Z,97.23
2019-01-12T20:50:11.292Z,97.21
2019-01-12T20:53:31.504Z,97.19
2019-01-12T20:57:04.749Z,97.27
2019-01-12T20:59:57.265Z,97.29
2019-01-12T21:03:25.873Z,97.31
2019-01-12T21:06:42.702Z,97.34
2019-01-12T21:09:50.343Z,97.40
2019-01-12T21:13:25.413Z,97.43
2019-01-12T21:16:06.869Z,97.46
2019-01-12T21:18:37.327Z,97.50
2019-01-12T21:21:07.544Z,97.51
2019-01-12T21:23:38.000Z,97.51
2019-01-12T21:26:08.437Z,97.50
2019-01-12T21:28:38.646Z,97.47
2019-01-12T21:31:09.063Z,97.49
2019-01-12T21:33:39.406Z,97.52
2019-01-12T21:36:09.959Z,97.48
2019-01-12T21:38:40.324Z,97.48
2019-01-12T21:41:10.826Z,97.50
2019-01-12T21:43:41.122Z,97.48
2019-01-12T21:46:11.491Z,97.55
2019-01-12T21:48:41.862Z,97.54
2019-01-12T21:51:12.281Z,97.52
2019-01-12T21:53:42.577Z,97.51
2019-01-12T21:56:12.737Z,97.53
2019-01-12T21:58:43.323Z,97.48
2019-01-12T22:01:13.752Z,97.47
2019-01-12T22:03:44.041Z,97.49
2019-01-12T22:06:15.012Z,97.45
2019-01-12T22:08:45.380Z,97.37
2019-01-12T22:11:16.162Z,97.42
2019-01-12T22:13:46.470Z,97.36
2019-01-12T22:16:17.176Z,97.36
2019-01-12T22:18:48.414Z,97.33
2019-01-12T22:21:18.808Z,97.26
2019-01-12T22:23:49.443Z,97.18
2019-01-12T22:26:19.767Z,97.17
2019-01-12T22:28:50.719Z,97.04
2019-01-12T22:31:21.064Z,96.99
2019-01-12T22:33:51.411Z,96.96
2019-01-12T22:36:22.152Z,96.89
2019-01-12T22:38:52.812Z,96.93
2019-01-12T22:41:23.213Z,96.93
2019-01-12T22:43:54.258Z,96.93
2019-01-12T22:46:24.875Z,96.90
2019-01-12T22:48:55.906Z,96.99
2019-01-12T22:51:26.058Z,96.95
2019-01-12T22:53:56.773Z,97.02
2019-01-12T22:56:27.205Z,96.99
2019-01-12T22:58:57.507Z,97.02
2019-01-12T23:02:00.076Z,97.01
2019-01-12T23:04:32.008Z,96.97
2019-01-12T23:07:02.338Z,96.97
2019-01-12T23:09:32.679Z,96.89
2019-01-12T23:12:02.950Z,96.80
2019-01-12T23:14:33.392Z,96.78
2019-01-12T23:17:03.977Z,96.88
2019-01-12T23:19:34.476Z,96.94
2019-01-12T23:22:05.169Z,96.99
2019-01-12T23:24:35.470Z,97.02
2019-01-12T23:27:06.747Z,97.00
2019-01-12T23:29:36.966Z,97.11
2019-01-12T23:32:07.277Z,97.08
2019-01-12T23:34:37.606Z,97.12
2019-01-12T23:37:08.124Z,97.13
2019-01-12T23:39:38.815Z,97.21
2019-01-12T23:42:09.213Z,97.22
2019-01-12T23:44:39.831Z,97.24
2019-01-12T23:47:10.257Z,97.22
2019-01-12T23:49:40.583Z,97.17
2019-01-12T23:52:10.997Z,97.17
2019-01-12T23:54:41.479Z,97.15
2019-01-12T23:57:12.832Z,97.07
2019-01-12T23:59:43.185Z,97.02
